createdAt,value
2018-03-29T00:01:38.433Z,998.27
2018-03-29T00:02:38.397Z,998.31
2018-03-29T00:04:32.026Z,998.28
2018-03-29T00:05:31.769Z,998.27
2018-03-29T00:07:25.253Z,998.28
2018-03-29T00:08:25.098Z,998.28
2018-03-29T00:10:18.669Z,998.29
2018-03-29T00:11:18.451Z,998.28
2018-03-29T00:13:11.424Z,998.27
2018-03-29T00:14:11.312Z,998.26
2018-03-29T00:16:04.211Z,998.31
2018-03-29T00:17:04.165Z,998.28
2018-03-29T00:18:57.147Z,998.26
2018-03-29T00:19:57.119Z,998.29
2018-03-29T00:21:50.494Z,998.29
2018-03-29T00:22:50.461Z,998.30
2018-03-29T00:24:43.963Z,998.35
2018-03-29T00:25:43.809Z,998.34
2018-03-29T00:27:36.704Z,998.31
2018-03-29T00:28:36.663Z,998.32
2018-03-29T00:30:29.726Z,998.33
2018-03-29T00:31:29.521Z,998.34
2018-03-29T00:33:23.032Z,998.35
2018-03-29T00:34:22.873Z,998.37
2018-03-29T00:36:15.761Z,998.36
2018-03-29T00:37:15.736Z,998.36
2018-03-29T00:39:11.949Z,998.36
2018-03-29T00:40:11.618Z,998.41
2018-03-29T00:42:05.234Z,998.40
2018-03-29T00:43:04.969Z,998.37
2018-03-29T00:44:58.549Z,998.36
2018-03-29T00:45:58.307Z,998.42
2018-03-29T00:47:51.720Z,998.46
2018-03-29T00:48:51.668Z,998.46
2018-03-29T00:50:45.285Z,998.49
2018-03-29T00:51:45.033Z,998.52
2018-03-29T00:53:38.556Z,998.53
2018-03-29T00:54:38.383Z,998.59
2018-03-29T00:56:31.852Z,998.62
2018-03-29T00:57:32.303Z,998.61
2018-03-29T00:59:25.192Z,998.59
2018-03-29T01:00:25.093Z,998.60
2018-03-29T01:02:18.002Z,998.66
2018-03-29T01:03:17.939Z,998.65
2018-03-29T01:05:11.518Z,998.72
2018-03-29T01:06:11.312Z,998.70
2018-03-29T01:08:04.720Z,998.72
2018-03-29T01:09:04.787Z,998.73
2018-03-29T01:10:58.135Z,998.76
2018-03-29T01:11:58.033Z,998.74
2018-03-29T01:13:51.404Z,998.73
2018-03-29T01:14:51.375Z,998.73
2018-03-29T01:16:44.412Z,998.75
2018-03-29T01:17:44.819Z,998.77
2018-03-29T01:19:37.314Z,998.82
2018-03-29T01:20:37.099Z,998.81
2018-03-29T01:22:30.043Z,998.85
2018-03-29T01:23:29.969Z,998.87
2018-03-29T01:25:24.604Z,998.81
2018-03-29T01:26:22.827Z,998.83
2018-03-29T01:28:16.220Z,998.85
2018-03-29T01:29:16.177Z,998.85
2018-03-29T01:31:09.668Z,998.84
2018-03-29T01:32:09.522Z,998.87
2018-03-29T01:34:02.416Z,998.90
2018-03-29T01:35:02.377Z,998.90
2018-03-29T01:36:55.277Z,998.86
2018-03-29T01:37:55.245Z,998.88
2018-03-29T01:39:48.244Z,998.92
2018-03-29T01:40:48.117Z,998.92
2018-03-29T01:42:41.062Z,998.93
2018-03-29T01:43:40.970Z,998.94
2018-03-29T01:45:33.867Z,998.96
2018-03-29T01:46:33.861Z,998.97
2018-03-29T01:48:26.741Z,999.02
2018-03-29T01:49:26.694Z,999.04
2018-03-29T01:51:19.583Z,999.01
2018-03-29T01:52:19.571Z,999.07
2018-03-29T01:54:12.454Z,999.07
2018-03-29T01:55:12.427Z,999.06
2018-03-29T01:57:05.971Z,999.08
2018-03-29T01:58:05.774Z,999.06
2018-03-29T01:59:58.930Z,999.01
2018-03-29T02:00:58.661Z,999.08
2018-03-29T02:02:51.738Z,999.03
2018-03-29T02:03:51.469Z,999.05
2018-03-29T02:05:44.372Z,999.12
2018-03-29T02:06:44.352Z,999.11
2018-03-29T02:08:37.601Z,999.08
2018-03-29T02:09:37.316Z,999.09
2018-03-29T02:11:30.690Z,999.11
2018-03-29T02:12:30.648Z,999.12
2018-03-29T02:14:24.622Z,999.13
2018-03-29T02:15:23.991Z,999.12
2018-03-29T02:17:17.428Z,999.12
2018-03-29T02:18:17.365Z,999.15
2018-03-29T02:20:10.450Z,999.17
2018-03-29T02:21:10.782Z,999.19
2018-03-29T02:23:03.125Z,999.21
2018-03-29T02:24:03.070Z,999.21
2018-03-29T02:25:56.187Z,999.24
2018-03-29T02:26:55.945Z,999.22
2018-03-29T02:28:49.500Z,999.22
2018-03-29T02:29:49.310Z,999.26
2018-03-29T02:31:43.227Z,999.23
2018-03-29T02:32:43.208Z,999.28
2018-03-29T02:34:36.233Z,999.25
2018-03-29T02:35:35.987Z,999.21
2018-03-29T02:37:29.673Z,999.27
2018-03-29T02:38:29.327Z,999.28
2018-03-29T02:40:22.905Z,999.35
2018-03-29T02:41:22.721Z,999.34
2018-03-29T02:43:15.837Z,999.33
2018-03-29T02:44:15.646Z,999.34
2018-03-29T02:46:09.044Z,999.37
2018-03-29T02:47:09.010Z,999.39
2018-03-29T02:49:02.464Z,999.38
2018-03-29T02:50:02.387Z,999.40
2018-03-29T02:51:55.769Z,999.42
2018-03-29T02:52:55.744Z,999.44
2018-03-29T02:54:49.409Z,999.43
2018-03-29T02:55:49.112Z,999.44
2018-03-29T02:57:42.186Z,999.45
2018-03-29T02:58:41.940Z,999.47
2018-03-29T03:00:35.054Z,999.43
2018-03-29T03:01:34.831Z,999.45
2018-03-29T03:03:27.948Z,999.44
2018-03-29T03:04:27.659Z,999.46
2018-03-29T03:06:20.740Z,999.49
2018-03-29T03:07:21.186Z,999.44
2018-03-29T03:09:14.043Z,999.42
2018-03-29T03:10:14.471Z,999.45
2018-03-29T03:12:06.923Z,999.46
2018-03-29T03:13:06.738Z,999.48
2018-03-29T03:15:00.289Z,999.48
2018-03-29T03:16:00.080Z,999.50
2018-03-29T03:17:53.472Z,999.49
2018-03-29T03:18:53.440Z,999.48
2018-03-29T03:20:47.098Z,999.48
2018-03-29T03:21:47.384Z,999.53
2018-03-29T03:23:40.196Z,999.50
2018-03-29T03:24:40.163Z,999.52
2018-03-29T03:26:33.939Z,999.49
2018-03-29T03:27:33.516Z,999.50
2018-03-29T03:29:27.006Z,999.54
2018-03-29T03:30:27.134Z,999.50
2018-03-29T03:32:20.247Z,999.49
2018-03-29T03:33:22.810Z,999.55
2018-03-29T03:35:15.156Z,999.56
2018-03-29T03:36:14.156Z,999.51
2018-03-29T03:38:06.732Z,999.59
2018-03-29T03:39:07.015Z,999.57
2018-03-29T03:40:59.825Z,999.61
2018-03-29T03:41:59.777Z,999.58
2018-03-29T03:43:53.546Z,999.57
2018-03-29T03:44:53.141Z,999.57
2018-03-29T03:46:46.746Z,999.53
2018-03-29T03:47:46.472Z,999.50
2018-03-29T03:49:39.361Z,999.53
2018-03-29T03:50:39.355Z,999.53
2018-03-29T03:52:32.926Z,999.54
2018-03-29T03:53:32.690Z,999.49
2018-03-29T03:55:26.326Z,999.46
2018-03-29T03:56:26.046Z,999.48
2018-03-29T03:58:19.687Z,999.49
2018-03-29T03:59:19.386Z,999.54
2018-03-29T04:01:13.005Z,999.47
2018-03-29T04:02:12.742Z,999.52
2018-03-29T04:04:08.709Z,999.56
2018-03-29T04:05:06.170Z,999.51
2018-03-29T04:06:58.825Z,999.49
2018-03-29T04:07:58.467Z,999.50
2018-03-29T04:09:51.373Z,999.52
2018-03-29T04:10:51.312Z,999.57
2018-03-29T04:12:44.721Z,999.59
2018-03-29T04:13:44.673Z,999.58
2018-03-29T04:15:37.806Z,999.64
2018-03-29T04:16:38.091Z,999.67
2018-03-29T04:18:31.182Z,999.66
2018-03-29T04:19:30.873Z,999.69
2018-03-29T04:21:25.088Z,999.68
2018-03-29T04:22:24.266Z,999.72
2018-03-29T04:24:17.834Z,999.76
2018-03-29T04:25:17.590Z,999.75
2018-03-29T04:27:10.958Z,999.73
2018-03-29T04:28:10.930Z,999.76
2018-03-29T04:30:04.310Z,999.77
2018-03-29T04:31:04.856Z,999.78
2018-03-29T04:32:57.677Z,999.78
2018-03-29T04:33:57.622Z,999.71
2018-03-29T04:35:50.656Z,999.73
2018-03-29T04:36:50.492Z,999.72
2018-03-29T04:38:45.772Z,999.64
2018-03-29T04:39:43.850Z,999.62
2018-03-29T04:41:36.715Z,999.63
2018-03-29T04:42:36.710Z,999.62
2018-03-29T04:44:31.089Z,999.61
2018-03-29T04:45:31.043Z,999.63
2018-03-29T04:47:24.609Z,999.64
2018-03-29T04:48:24.990Z,999.66
2018-03-29T04:50:17.422Z,999.65
2018-03-29T04:51:17.263Z,999.64
2018-03-29T04:53:13.365Z,999.67
2018-03-29T04:54:10.629Z,999.68
2018-03-29T04:56:04.040Z,999.66
2018-03-29T04:57:04.003Z,999.66
2018-03-29T04:58:57.568Z,999.67
2018-03-29T04:59:57.916Z,999.64
2018-03-29T05:01:50.371Z,999.69
2018-03-29T05:02:50.212Z,999.71
2018-03-29T05:04:43.596Z,999.74
2018-03-29T05:05:43.556Z,999.73
2018-03-29T05:07:37.511Z,999.76
2018-03-29T05:08:36.896Z,999.73
2018-03-29T05:10:30.284Z,999.74
2018-03-29T05:11:30.255Z,999.77
2018-03-29T05:13:23.982Z,999.78
2018-03-29T05:14:23.885Z,999.75
2018-03-29T05:16:17.297Z,999.76
2018-03-29T05:17:16.960Z,999.76
2018-03-29T05:19:10.631Z,999.76
2018-03-29T05:20:10.331Z,999.77
2018-03-29T05:22:03.982Z,999.78
2018-03-29T05:23:03.695Z,999.79
2018-03-29T05:24:57.162Z,999.75
2018-03-29T05:25:57.057Z,999.75
2018-03-29T05:27:57.423Z,999.78
2018-03-29T05:28:58.241Z,999.81
2018-03-29T05:30:50.294Z,999.80
2018-03-29T05:31:50.263Z,999.81
2018-03-29T05:33:58.560Z,999.79
2018-03-29T05:34:58.248Z,999.85
2018-03-29T05:36:53.157Z,999.84
2018-03-29T05:37:51.911Z,999.82
2018-03-29T05:39:45.393Z,999.88
2018-03-29T05:40:44.984Z,999.88
2018-03-29T05:42:38.456Z,999.88
2018-03-29T05:43:38.708Z,999.91
2018-03-29T05:45:31.360Z,999.95
2018-03-29T05:46:31.274Z,999.87
2018-03-29T05:48:43.877Z,999.92
2018-03-29T05:49:44.146Z,999.86
2018-03-29T05:51:37.552Z,999.86
2018-03-29T05:52:37.160Z,999.84
2018-03-29T05:54:30.809Z,999.85
2018-03-29T05:55:30.517Z,999.83
2018-03-29T05:57:24.778Z,999.82
2018-03-29T05:58:23.881Z,999.79
2018-03-29T06:00:16.885Z,999.75
2018-03-29T06:01:16.745Z,999.77
2018-03-29T06:03:10.512Z,999.75
2018-03-29T06:04:10.107Z,999.71
2018-03-29T06:06:10.613Z,999.74
2018-03-29T06:07:10.865Z,999.69
2018-03-29T06:09:04.234Z,999.71
2018-03-29T06:10:04.109Z,999.75
2018-03-29T06:11:57.555Z,999.72
2018-03-29T06:12:57.477Z,999.76
2018-03-29T06:14:50.915Z,999.79
2018-03-29T06:15:51.126Z,999.82
2018-03-29T06:17:44.471Z,999.83
2018-03-29T06:18:43.895Z,999.78
2018-03-29T06:20:37.550Z,999.79
2018-03-29T06:21:37.245Z,999.74
2018-03-29T06:23:30.186Z,999.78
2018-03-29T06:25:43.530Z,999.75
2018-03-29T06:26:43.534Z,999.74
2018-03-29T06:28:36.778Z,999.79
2018-03-29T06:29:36.730Z,999.79
2018-03-29T06:31:30.333Z,999.84
2018-03-29T06:32:29.690Z,999.83
2018-03-29T06:34:24.042Z,999.85
2018-03-29T06:35:23.122Z,999.84
2018-03-29T06:37:16.865Z,999.86
2018-03-29T06:38:16.444Z,999.87
2018-03-29T06:40:10.186Z,999.94
2018-03-29T06:41:10.191Z,999.91
2018-03-29T06:43:03.088Z,999.94
2018-03-29T06:44:03.025Z,999.96
2018-03-29T06:45:56.372Z,999.91
2018-03-29T06:46:57.416Z,999.90
2018-03-29T06:48:50.408Z,999.91
2018-03-29T06:49:50.648Z,999.94
2018-03-29T06:51:44.000Z,999.93
2018-03-29T06:52:43.698Z,999.94
2018-03-29T06:54:38.011Z,999.89
2018-03-29T06:55:37.439Z,999.92
2018-03-29T06:57:30.763Z,999.91
2018-03-29T06:58:31.011Z,999.93
2018-03-29T07:00:24.117Z,999.99
2018-03-29T07:01:24.166Z,999.94
2018-03-29T07:03:16.970Z,999.95
2018-03-29T07:04:16.990Z,999.92
2018-03-29T07:06:10.455Z,999.90
2018-03-29T07:07:09.992Z,999.94
2018-03-29T07:09:03.749Z,999.99
2018-03-29T07:10:03.708Z,999.97
2018-03-29T07:11:57.310Z,999.97
2018-03-29T07:12:59.272Z,999.96
2018-03-29T07:14:51.464Z,999.95
2018-03-29T07:15:51.644Z,999.98
2018-03-29T07:17:44.931Z,1000.01
2018-03-29T07:18:44.808Z,999.96
2018-03-29T07:20:40.771Z,999.97
2018-03-29T07:21:40.958Z,999.93
2018-03-29T07:23:34.156Z,999.96
2018-03-29T07:24:34.098Z,1000.01
2018-03-29T07:26:27.504Z,999.97
2018-03-29T07:27:27.447Z,999.98
2018-03-29T07:29:20.866Z,999.99
2018-03-29T07:30:20.756Z,1000.01
2018-03-29T07:32:14.301Z,1000.05
2018-03-29T07:33:13.655Z,1000.05
2018-03-29T07:35:17.209Z,1000.06
2018-03-29T07:36:17.506Z,1000.00
2018-03-29T07:38:10.920Z,1000.06
2018-03-29T07:39:10.909Z,1000.11
2018-03-29T07:41:04.330Z,1000.14
2018-03-29T07:42:04.521Z,1000.18
2018-03-29T07:44:12.018Z,1000.23
2018-03-29T07:45:12.360Z,1000.20
2018-03-29T07:47:05.875Z,1000.22
2018-03-29T07:48:05.408Z,1000.20
2018-03-29T07:49:59.192Z,1000.24
2018-03-29T07:50:59.099Z,1000.22
2018-03-29T07:52:52.436Z,1000.22
2018-03-29T07:53:52.479Z,1000.26
2018-03-29T07:55:46.342Z,1000.32
2018-03-29T07:56:45.461Z,1000.33
2018-03-29T07:58:39.245Z,1000.35
2018-03-29T07:59:39.182Z,1000.38
2018-03-29T08:01:34.454Z,1000.36
2018-03-29T08:02:31.723Z,1000.44
2018-03-29T08:04:25.456Z,1000.41
2018-03-29T08:05:25.504Z,1000.41
2018-03-29T08:07:18.830Z,1000.42
2018-03-29T08:08:18.833Z,1000.45
2018-03-29T08:10:12.804Z,1000.40
2018-03-29T08:11:12.296Z,1000.43
2018-03-29T08:13:05.709Z,1000.43
2018-03-29T08:14:05.613Z,1000.39
2018-03-29T08:15:59.075Z,1000.43
2018-03-29T08:16:58.666Z,1000.49
2018-03-29T08:18:52.347Z,1000.46
2018-03-29T08:19:51.969Z,1000.48
2018-03-29T08:21:45.772Z,1000.48
2018-03-29T08:22:45.373Z,1000.49
2018-03-29T08:24:39.078Z,1000.44
2018-03-29T08:25:39.089Z,1000.51
2018-03-29T08:27:32.469Z,1000.51
2018-03-29T08:28:32.060Z,1000.50
2018-03-29T08:30:25.812Z,1000.51
2018-03-29T08:31:25.815Z,1000.57
2018-03-29T08:33:19.215Z,1000.57
2018-03-29T08:34:18.785Z,1000.56
2018-03-29T08:36:12.588Z,1000.60
2018-03-29T08:37:12.606Z,1000.62
2018-03-29T08:39:14.617Z,1000.64
2018-03-29T08:40:10.603Z,1000.68
2018-03-29T08:42:05.402Z,1000.62
2018-03-29T08:43:07.391Z,1000.68
